Time;durP1;ratioP1;P1;durP2;ratioP2;P2;SDS_P1;SDS_P2;PMS_P1;PMS_P2;Temp;Humidity;BMP_temperature;BMP_pressure;BME280_temperature;BME280_humidity;BME280_pressure;Samples;Min_cycle;Max_cycle;Signal;HPM_P1;HPM_P2
2021/08/03 00:00:56;;;;;;;6.17;2.20;;;24.10;54.40;;;;;;6243137;23;20421;-80
2021/08/03 00:04:00;;;;;;;2.10;1.80;;;24.10;54.40;;;;;;6244011;23;20372;-80
2021/08/03 00:07:11;;;;;;;1.97;1.70;;;24.10;54.40;;;;;;6159134;23;20430;-80
2021/08/03 00:09:43;;;;;;;2.13;1.93;;;24.10;54.30;;;;;;6136059;23;20380;-79
2021/08/03 00:16:22;;;;;;;2.17;1.70;;;24.20;54.20;;;;;;6176811;23;20364;-80
2021/08/03 00:18:56;;;;;;;1.67;1.57;;;24.30;54.00;;;;;;6176307;23;20372;-79
2021/08/03 00:21:26;;;;;;;2.63;1.73;;;24.20;54.00;;;;;;6128201;23;20368;-80
2021/08/03 00:23:57;;;;;;;2.00;1.80;;;24.20;54.00;;;;;;6176142;23;20415;-81
2021/08/03 00:26:26;;;;;;;2.70;2.17;;;24.20;54.00;;;;;;6152193;23;20518;-80
2021/08/03 00:29:03;;;;;;;1.67;1.40;;;24.20;54.00;;;;;;6175523;23;20382;-80
2021/08/03 00:31:30;;;;;;;2.80;1.53;;;24.20;54.00;;;;;;6175256;23;20380;-81
2021/08/03 00:34:04;;;;;;;2.50;1.63;;;24.20;54.00;;;;;;6150838;23;20802;-81
2021/08/03 00:36:33;;;;;;;2.90;1.63;;;24.30;54.00;;;;;;6150887;23;20387;-80
2021/08/03 00:39:00;;;;;;;2.87;1.80;;;24.30;53.80;;;;;;6151547;23;20564;-80
2021/08/03 00:41:37;;;;;;;2.30;1.80;;;24.30;53.80;;;;;;6150782;23;20380;-81
2021/08/03 00:44:06;;;;;;;2.80;1.87;;;24.30;53.70;;;;;;6230717;23;20385;-83
2021/08/03 00:46:44;;;;;;;2.97;1.73;;;24.30;53.60;;;;;;6264825;23;20409;-83
2021/08/03 00:49:13;;;;;;;2.60;2.10;;;24.20;53.70;;;;;;6267391;23;20380;-79
2021/08/03 00:58:45;;;;;;;1.90;1.70;;;24.10;53.90;;;;;;6089492;23;20370;-80
2021/08/03 01:01:11;;;;;;;2.27;1.70;;;24.10;54.00;;;;;;6088392;23;20373;-80
2021/08/03 01:03:39;;;;;;;1.83;1.60;;;24.10;53.90;;;;;;6090205;23;20383;-80
2021/08/03 01:06:34;;;;;;;1.93;1.40;;;24.10;53.90;;;;;;6066607;23;20418;-80
2021/08/03 01:09:48;;;;;;;2.60;1.90;;;24.20;54.20;;;;;;6066577;23;20379;-80
2021/08/03 01:12:32;;;;;;;2.90;1.70;;;24.10;53.80;;;;;;6031687;23;20379;-80
2021/08/03 01:15:15;;;;;;;3.23;1.67;;;24.00;54.00;;;;;;6066632;23;20411;-80
2021/08/03 01:17:59;;;;;;;3.37;1.47;;;24.00;54.00;;;;;;6089208;23;20422;-80
2021/08/03 01:20:31;;;;;;;3.43;1.80;;;24.00;54.00;;;;;;6066374;23;20387;-80
2021/08/03 01:23:24;;;;;;;3.63;2.90;;;24.00;53.90;;;;;;6090075;23;20398;-81
2021/08/03 01:26:27;;;;;;;1.70;1.60;;;24.10;54.00;;;;;;6090027;23;20451;-80
2021/08/03 01:29:00;;;;;;;2.37;1.40;;;24.10;53.70;;;;;;6066128;23;20382;-81
2021/08/03 01:31:30;;;;;;;3.00;2.10;;;24.00;53.90;;;;;;6097968;23;20373;-81
2021/08/03 01:34:10;;;;;;;2.30;1.63;;;24.00;53.80;;;;;;6148169;23;20398;-80
2021/08/03 01:36:42;;;;;;;3.17;1.87;;;24.00;53.70;;;;;;6123924;23;20412;-80
2021/08/03 01:39:09;;;;;;;2.20;1.73;;;23.90;53.80;;;;;;6148766;23;20409;-80
2021/08/03 01:41:36;;;;;;;1.70;1.60;;;23.90;54.50;;;;;;6123909;23;20385;-80
2021/08/03 01:44:13;;;;;;;2.53;1.60;;;23.80;53.90;;;;;;6123851;23;20456;-80
2021/08/03 01:47:03;;;;;;;4.00;1.83;;;23.90;54.00;;;;;;6145518;23;20424;-80
2021/08/03 01:49:39;;;;;;;4.30;1.60;;;23.80;53.90;;;;;;6124083;23;20410;-80
2021/08/03 01:52:16;;;;;;;2.00;1.60;;;23.90;54.00;;;;;;6269779;23;20399;-80
2021/08/03 01:54:54;;;;;;;2.67;1.40;;;23.90;54.00;;;;;;6261368;23;20373;-80
2021/08/03 01:57:26;;;;;;;2.10;1.40;;;23.90;54.00;;;;;;6243484;23;20377;-80
2021/08/03 01:59:55;;;;;;;2.77;1.80;;;23.90;53.80;;;;;;6268109;23;20378;-80
2021/08/03 02:02:25;;;;;;;2.83;2.57;;;23.90;53.80;;;;;;6268530;23;20706;-82
2021/08/03 02:04:56;;;;;;;2.77;1.50;;;23.90;53.80;;;;;;6244595;23;20378;-81
2021/08/03 02:07:30;;;;;;;2.83;1.60;;;23.90;53.90;;;;;;6244491;23;20435;-80
2021/08/03 02:09:59;;;;;;;2.70;1.50;;;23.90;53.80;;;;;;6268861;23;20377;-80
2021/08/03 02:12:37;;;;;;;3.83;1.97;;;23.90;53.80;;;;;;6270773;23;20378;-80
2021/08/03 02:15:16;;;;;;;4.30;2.10;;;23.90;53.80;;;;;;6270651;23;20358;-80
2021/08/03 02:17:49;;;;;;;3.10;1.80;;;23.90;53.70;;;;;;6241609;23;20419;-80
2021/08/03 02:20:22;;;;;;;1.80;1.40;;;23.90;53.60;;;;;;6269039;23;20386;-80
2021/08/03 02:22:58;;;;;;;4.07;1.90;;;23.90;53.70;;;;;;6245119;23;20378;-80
2021/08/03 02:25:32;;;;;;;2.90;1.83;;;23.80;53.60;;;;;;6269254;23;20846;-80
2021/08/03 02:27:58;;;;;;;2.10;1.60;;;23.70;53.60;;;;;;6244261;23;20420;-80
2021/08/03 02:30:24;;;;;;;2.13;1.50;;;23.70;53.80;;;;;;6269728;23;20599;-80
2021/08/03 02:33:03;;;;;;;2.10;1.67;;;23.70;54.00;;;;;;6270272;23;20362;-80
2021/08/03 02:35:38;;;;;;;4.20;1.80;;;23.70;53.80;;;;;;6269736;23;20389;-81
2021/08/03 02:38:09;;;;;;;4.47;2.33;;;23.70;53.70;;;;;;6269649;23;20381;-81
2021/08/03 02:40:38;;;;;;;4.33;2.10;;;23.70;53.60;;;;;;6269733;23;20378;-80
2021/08/03 02:43:04;;;;;;;2.03;1.77;;;23.70;53.70;;;;;;6270241;23;20419;-80
2021/08/03 02:45:31;;;;;;;2.17;1.60;;;23.70;53.70;;;;;;6269205;23;20369;-80
2021/08/03 02:48:10;;;;;;;2.93;1.70;;;23.70;53.70;;;;;;6269342;23;20425;-80
2021/08/03 02:50:45;;;;;;;2.73;1.53;;;23.70;53.60;;;;;;6269625;23;20768;-80
2021/08/03 02:53:47;;;;;;;2.87;1.47;;;23.70;53.70;;;;;;6269015;23;20407;-80
2021/08/03 02:56:17;;;;;;;2.27;1.80;;;23.80;53.70;;;;;;6224688;23;20377;-80
2021/08/03 02:59:16;;;;;;;2.60;2.20;;;23.80;53.60;;;;;;6269355;23;20381;-81
2021/08/03 03:01:43;;;;;;;4.23;1.60;;;23.90;53.40;;;;;;6246872;23;20365;-80
2021/08/03 03:04:20;;;;;;;2.60;1.60;;;23.90;53.50;;;;;;6269959;23;20366;-80
2021/08/03 03:06:54;;;;;;;6.37;1.90;;;23.90;53.40;;;;;;6268431;23;20408;-81
2021/08/03 03:09:23;;;;;;;5.00;2.20;;;24.00;53.40;;;;;;6269713;23;20346;-81
2021/08/03 03:11:53;;;;;;;2.80;1.67;;;24.00;53.30;;;;;;6268479;23;20401;-80
2021/08/03 03:14:22;;;;;;;3.03;1.83;;;24.00;53.20;;;;;;6269100;23;20371;-80
2021/08/03 03:16:50;;;;;;;2.50;1.40;;;24.00;53.10;;;;;;6243585;23;20377;-80
2021/08/03 03:19:20;;;;;;;3.40;1.43;;;24.00;53.10;;;;;;6268659;23;20391;-80
2021/08/03 03:21:48;;;;;;;3.37;1.97;;;24.00;53.00;;;;;;6268068;23;20377;-80
2021/08/03 03:24:25;;;;;;;2.90;2.00;;;24.10;53.10;;;;;;6268551;23;20369;-80
2021/08/03 03:26:58;;;;;;;1.97;1.87;;;24.10;53.00;;;;;;6267510;23;20401;-81
2021/08/03 03:29:26;;;;;;;2.73;1.73;;;24.10;53.00;;;;;;6267809;23;20372;-81
2021/08/03 03:31:59;;;;;;;3.80;1.90;;;24.10;52.90;;;;;;6265839;23;20381;-80
2021/08/03 03:34:27;;;;;;;7.07;1.87;;;24.10;52.90;;;;;;6241126;23;20393;-81
2021/08/03 03:36:57;;;;;;;1.70;1.50;;;24.00;52.60;;;;;;6266617;23;20417;-81
2021/08/03 03:39:24;;;;;;;1.90;1.47;;;24.00;52.90;;;;;;6268399;23;20361;-80
2021/08/03 03:42:01;;;;;;;1.90;1.70;;;24.00;52.80;;;;;;6267331;23;20388;-81
2021/08/03 03:44:29;;;;;;;3.20;1.57;;;24.00;52.90;;;;;;6268168;23;20341;-80
2021/08/03 03:46:59;;;;;;;1.87;1.67;;;23.90;52.90;;;;;;6266609;23;20416;-80
2021/08/03 03:49:36;;;;;;;2.10;1.90;;;23.80;53.00;;;;;;6241733;23;20378;-80
2021/08/03 03:52:04;;;;;;;1.93;1.50;;;23.70;53.00;;;;;;6242081;23;20377;-80
2021/08/03 03:54:34;;;;;;;3.53;2.00;;;23.70;53.10;;;;;;6266927;23;20388;-80
2021/08/03 03:57:04;;;;;;;2.93;1.73;;;23.70;53.30;;;;;;6266898;23;20431;-80
2021/08/03 03:59:30;;;;;;;4.43;1.60;;;23.70;53.20;;;;;;6266423;23;20453;-80
2021/08/03 04:02:05;;;;;;;5.97;2.00;;;23.70;53.00;;;;;;6268108;23;20858;-80
2021/08/03 04:04:33;;;;;;;4.63;1.97;;;23.70;53.00;;;;;;6267369;23;20376;-80
2021/08/03 04:07:00;;;;;;;4.90;2.40;;;23.70;53.10;;;;;;6267203;23;20413;-81
2021/08/03 04:09:26;;;;;;;1.70;1.60;;;23.60;53.70;;;;;;6264889;23;20483;-80
2021/08/03 04:11:53;;;;;;;1.70;1.60;;;23.60;53.30;;;;;;6265892;23;20366;-80
2021/08/03 04:15:01;;;;;;;3.20;1.80;;;23.60;53.40;;;;;;6266522;23;20377;-81
2021/08/03 04:17:44;;;;;;;3.13;2.40;;;23.60;53.20;;;;;;6266124;23;20358;-81
2021/08/03 04:20:22;;;;;;;2.00;1.77;;;23.60;53.20;;;;;;6239779;23;20446;-81
2021/08/03 04:22:52;;;;;;;2.93;2.27;;;23.60;53.30;;;;;;6239661;23;20453;-81
2021/08/03 04:25:20;;;;;;;3.20;1.80;;;23.60;53.30;;;;;;6264335;23;20407;-80
2021/08/03 04:27:47;;;;;;;2.53;1.87;;;23.70;53.30;;;;;;6264819;23;20428;-81
2021/08/03 04:30:15;;;;;;;3.80;2.00;;;23.70;53.10;;;;;;6264374;23;20373;-81
2021/08/03 04:32:42;;;;;;;2.47;2.00;;;23.80;53.00;;;;;;6265429;23;20376;-82
2021/08/03 04:35:11;;;;;;;2.07;1.87;;;23.80;52.90;;;;;;6239418;23;20413;-82
2021/08/03 04:37:46;;;;;;;1.70;1.40;;;23.80;52.90;;;;;;6268802;23;20400;-81
2021/08/03 04:40:18;;;;;;;1.83;1.30;;;23.90;52.80;;;;;;6268114;23;20384;-82
2021/08/03 04:42:45;;;;;;;2.30;1.93;;;23.90;52.70;;;;;;6244692;23;20428;-81
2021/08/03 04:45:24;;;;;;;1.70;1.60;;;23.90;52.70;;;;;;6266960;23;20389;-82
2021/08/03 04:48:16;;;;;;;1.60;1.50;;;24.00;52.70;;;;;;6243374;23;20510;-81
2021/08/03 04:51:08;;;;;;;2.43;1.90;;;24.00;52.60;;;;;;6242459;23;20412;-81
2021/08/03 04:53:56;;;;;;;1.93;1.63;;;24.00;52.60;;;;;;6268156;23;20381;-81
2021/08/03 04:56:47;;;;;;;3.00;2.80;;;24.00;52.30;;;;;;6267650;23;20381;-81
2021/08/03 04:59:22;;;;;;;2.80;1.57;;;24.00;52.40;;;;;;6267213;23;20383;-82
2021/08/03 05:02:17;;;;;;;3.13;1.33;;;24.00;53.00;;;;;;6270023;23;20387;-82
2021/08/03 05:15:38;;;;;;;1.90;1.53;;;23.90;52.60;;;;;;6178732;23;20407;-81
2021/08/03 05:18:26;;;;;;;2.63;1.83;;;23.90;52.60;;;;;;6177999;23;20471;-81
2021/08/03 05:21:26;;;;;;;1.63;1.53;;;23.80;52.70;;;;;;6176926;23;20387;-81
2021/08/03 05:23:52;;;;;;;5.30;1.40;;;23.90;52.90;;;;;;6173771;23;20380;-80
2021/08/03 05:26:18;;;;;;;2.40;1.97;;;23.80;52.80;;;;;;6175123;23;20473;-81
2021/08/03 05:28:44;;;;;;;2.60;1.57;;;23.90;52.80;;;;;;6174883;23;20153;-82
2021/08/03 05:31:15;;;;;;;1.63;1.40;;;23.90;52.80;;;;;;6174750;23;20148;-81
2021/08/03 05:33:44;;;;;;;2.40;1.80;;;23.90;52.70;;;;;;6174025;23;20497;-82
2021/08/03 05:36:10;;;;;;;2.70;2.07;;;23.90;52.70;;;;;;6178504;23;20423;-81
2021/08/03 05:38:44;;;;;;;2.13;1.90;;;23.90;52.80;;;;;;6267979;23;20421;-81
2021/08/03 05:41:10;;;;;;;4.00;2.27;;;23.90;52.80;;;;;;6268371;23;20361;-80
2021/08/03 05:43:35;;;;;;;2.47;1.93;;;23.80;52.90;;;;;;6241581;23;20385;-81
2021/08/03 05:46:07;;;;;;;2.50;1.97;;;23.80;52.90;;;;;;6266263;23;20597;-81
2021/08/03 05:48:46;;;;;;;4.43;2.30;;;23.80;52.90;;;;;;6268724;23;20153;-81
2021/08/03 05:51:56;;;;;;;2.20;1.80;;;23.80;53.00;;;;;;6268621;23;20354;-80
2021/08/03 05:54:35;;;;;;;2.93;1.90;;;23.90;53.00;;;;;;6145798;23;20404;-81
2021/08/03 10:59:28;;;;;;;2.37;1.53;;;24.70;53.50;;;;;;5922495;24;20390;-82
2021/08/03 11:02:34;;;;;;;2.50;2.30;;;24.60;53.40;;;;;;5892652;24;20394;-82
2021/08/03 12:43:37;;;;;;;3.23;2.60;;;24.60;53.80;;;;;;6235434;22;20452;-83
2021/08/03 12:46:04;;;;;;;4.10;2.30;;;24.60;53.80;;;;;;6266339;23;20445;-83
2021/08/03 12:48:31;;;;;;;5.17;2.30;;;24.60;53.80;;;;;;6265809;23;20404;-85
2021/08/03 12:51:02;;;;;;;6.10;2.50;;;24.60;53.90;;;;;;6266165;23;20392;-83
2021/08/03 12:53:30;;;;;;;4.60;2.10;;;24.60;54.00;;;;;;6267716;23;20341;-82
2021/08/03 15:18:23;;;;;;;;;;;;;;;;;;;;;
2021/08/03 16:53:07;;;;;;;1.47;1.17;;;24.10;55.30;;;;;;5887318;24;20380;-89
2021/08/03 16:55:49;;;;;;;1.33;1.10;;;24.10;55.40;;;;;;5929410;24;20449;-83
2021/08/03 17:15:03;;;;;;;1.80;1.40;;;24.10;55.40;;;;;;5916506;24;20379;-85
2021/08/03 17:18:08;;;;;;;2.33;1.40;;;24.00;55.40;;;;;;5943324;24;20619;-85
2021/08/03 17:21:11;;;;;;;1.30;1.20;;;24.10;55.40;;;;;;5916665;24;20437;-85
2021/08/03 17:23:58;;;;;;;;;;;;;;;;;;;;;
2021/08/03 17:26:49;;;;;;;1.77;1.27;;;24.10;55.50;;;;;;6002350;23;20395;-86
2021/08/03 17:36:20;;;;;;;;;;;;;;;;;;;;;
2021/08/03 17:38:56;;;;;;;1.50;1.17;;;24.00;55.70;;;;;;6026514;23;20396;-87
2021/08/03 17:41:31;;;;;;;2.57;1.57;;;24.00;55.90;;;;;;6002403;23;20376;-87
2021/08/03 17:44:27;;;;;;;2.40;1.10;;;24.00;55.90;;;;;;6025484;23;20380;-86
2021/08/03 17:46:56;;;;;;;2.73;1.60;;;24.00;56.00;;;;;;6031162;23;20427;-86
2021/08/03 17:49:32;;;;;;;4.13;1.40;;;23.90;56.40;;;;;;6027057;23;20384;-87
2021/08/03 17:52:19;;;;;;;4.33;1.40;;;23.90;56.70;;;;;;6113953;23;20463;-84
2021/08/03 18:08:13;;;;;;;1.90;1.20;;;23.80;57.30;;;;;;6113188;23;20460;-85
2021/08/03 18:24:54;;;;;;;5.60;1.70;;;23.70;58.00;;;;;;6114639;23;20442;-83
2021/08/03 18:38:32;;;;;;;1.70;1.50;;;23.70;57.90;;;;;;5983982;23;20418;-83
2021/08/03 18:41:38;;;;;;;;;;;;;;;;;;;;;
2021/08/03 19:02:24;;;;;;;;;;;;;;;;;;;;;
2021/08/03 19:04:45;;;;;;;3.20;1.67;;;23.70;57.40;;;;;;5943309;24;20387;-86
2021/08/03 19:35:26;;;;;;;;;;;;;;;;;;;;;
2021/08/03 19:42:05;;;;;;;2.60;1.83;;;24.00;56.80;;;;;;5780549;24;20461;-89
2021/08/03 19:44:50;;;;;;;3.23;2.07;;;24.00;57.00;;;;;;5780763;24;20487;-89
2021/08/03 19:47:39;;;;;;;2.23;1.73;;;24.00;57.20;;;;;;5780223;24;20449;-89
2021/08/03 19:50:14;;;;;;;1.50;1.20;;;23.90;57.00;;;;;;5779481;24;20396;-90
2021/08/03 19:52:52;;;;;;;1.93;1.30;;;24.00;57.00;;;;;;5799835;24;20386;-89
2021/08/03 19:59:31;;;;;;;;;;;;;;;;;;;;;
2021/08/03 20:02:24;;;;;;;1.40;1.20;;;24.00;56.70;;;;;;5883796;24;20509;-86
2021/08/03 20:53:48;;;;;;;;;;;;;;;;;;;;;
2021/08/03 22:36:01;;;;;;;;;;;;;;;;;;;;;
2021/08/03 22:38:31;;;;;;;3.10;1.60;;;23.80;57.00;;;;;;5885600;24;20416;-90
2021/08/03 22:41:19;;;;;;;1.50;1.37;;;23.80;56.90;;;;;;5874433;24;20493;-91
2021/08/03 22:43:51;;;;;;;1.70;1.40;;;23.90;56.80;;;;;;5939238;24;20430;-87
2021/08/03 22:46:35;;;;;;;2.17;1.33;;;23.90;56.80;;;;;;5939384;24;20475;-86
2021/08/03 22:49:45;;;;;;;2.20;1.50;;;23.90;56.70;;;;;;5917169;24;20890;-86
2021/08/03 22:52:35;;;;;;;3.37;1.70;;;24.00;56.60;;;;;;5959175;24;20438;-86
2021/08/03 22:55:08;;;;;;;1.80;1.60;;;24.00;56.70;;;;;;5966299;24;20394;-87
2021/08/03 22:57:47;;;;;;;1.53;1.40;;;24.00;56.50;;;;;;5944390;24;20401;-86
2021/08/03 23:00:33;;;;;;;;;;;;;;;;;;;;;
2021/08/03 23:03:04;;;;;;;1.63;1.50;;;24.00;56.30;;;;;;6050966;23;20427;-85
2021/08/03 23:05:39;;;;;;;1.60;1.40;;;24.00;56.30;;;;;;6137973;23;20399;-85
2021/08/03 23:12:10;;;;;;;1.50;1.40;;;24.10;56.30;;;;;;6235335;23;20448;-87
2021/08/03 23:14:46;;;;;;;2.43;1.50;;;24.10;56.30;;;;;;6258855;23;20396;-85
2021/08/03 23:17:19;;;;;;;2.57;1.70;;;24.10;56.30;;;;;;6259682;23;20937;-86
2021/08/03 23:19:51;;;;;;;2.53;1.93;;;24.10;56.20;;;;;;6257058;23;20896;-86
2021/08/03 23:22:20;;;;;;;1.87;1.43;;;24.10;56.20;;;;;;6260874;23;20476;-86
2021/08/03 23:24:50;;;;;;;1.93;1.70;;;24.10;56.20;;;;;;6233239;23;20393;-86
2021/08/03 23:27:21;;;;;;;1.90;1.23;;;24.10;56.10;;;;;;6259212;23;20425;-86
2021/08/03 23:29:51;;;;;;;2.37;1.70;;;24.10;56.10;;;;;;6235072;23;20385;-86
2021/08/03 23:32:25;;;;;;;1.83;1.20;;;24.10;56.00;;;;;;6260727;23;20388;-87
2021/08/03 23:35:04;;;;;;;1.40;1.30;;;24.20;56.10;;;;;;6261464;23;20388;-86
2021/08/03 23:37:36;;;;;;;1.63;1.53;;;24.20;56.00;;;;;;6258618;23;20405;-85
2021/08/03 23:40:14;;;;;;;1.93;1.50;;;24.20;56.00;;;;;;6259864;23;20385;-86
2021/08/03 23:42:43;;;;;;;1.57;1.47;;;24.20;56.00;;;;;;6258790;23;20455;-86
2021/08/03 23:45:14;;;;;;;1.60;1.27;;;24.20;56.00;;;;;;6258116;23;20385;-86
2021/08/03 23:48:26;;;;;;;1.93;1.40;;;24.20;55.90;;;;;;6261462;23;20417;-86
2021/08/03 23:50:55;;;;;;;1.40;1.10;;;24.20;55.90;;;;;;6260057;23;20380;-86
2021/08/03 23:53:22;;;;;;;2.80;1.30;;;24.10;55.90;;;;;;6234186;23;20754;-86
2021/08/03 23:55:56;;;;;;;1.43;1.23;;;24.20;56.00;;;;;;6259869;23;20458;-86
2021/08/03 23:58:28;;;;;;;1.77;1.17;;;24.20;55.90;;;;;;6233255;23;20395;-86
